GAP2546 RPVD-RPLL
Flight info
| Callsign | GAP2546 |
|---|---|
| Flight time | 0h 59m |
| Altitude | 34000 |
| Route | NANAS5R NANAS B472 IBAGO IBAGO3R |
| Aircraft | A320/M-SDE3FGHIRWY/LB1 |
Departure
| Time | 2026-05-05 12:34 |
|---|---|
| Airport | Sibulan Airport (RPVD) |
Arrival
| Time | 2026-05-05 13:34 |
|---|---|
| Airport | Ninoy Aquino International Airport (RPLL) |
| Time | Latitude | Longitude | Altitude | Speed | Heading |
|---|---|---|---|---|---|
| 2026-05-05 12:25 | 9.33322 | 123.29580 | 50 ft | 0 kts | 148° |
| 2026-05-05 12:30 | 9.33321 | 123.29581 | 50 ft | 2 kts | 143° |
| 2026-05-05 12:30 | 9.33329 | 123.29586 | 49 ft | 2 kts | 1° |
| 2026-05-05 12:31 | 9.33343 | 123.29573 | 48 ft | 10 kts | 318° |
| 2026-05-05 12:31 | 9.33383 | 123.29533 | 51 ft | 6 kts | 307° |
| 2026-05-05 12:31 | 9.33419 | 123.29496 | 52 ft | 8 kts | 318° |
| 2026-05-05 12:31 | 9.33455 | 123.29457 | 53 ft | 10 kts | 298° |
| 2026-05-05 12:32 | 9.33461 | 123.29380 | 53 ft | 9 kts | 263° |
| 2026-05-05 12:32 | 9.33464 | 123.29343 | 53 ft | 3 kts | 4° |
| 2026-05-05 12:32 | 9.33463 | 123.29379 | 53 ft | 6 kts | 95° |
| 2026-05-05 12:32 | 9.33463 | 123.29381 | 53 ft | 0 kts | 94° |
| 2026-05-05 12:33 | 9.33462 | 123.29395 | 53 ft | 11 kts | 94° |
| 2026-05-05 12:34 | 9.33443 | 123.29750 | 50 ft | 89 kts | 93° |
| 2026-05-05 12:34 | 9.33397 | 123.30601 | 39 ft | 150 kts | 93° |
| 2026-05-05 12:34 | 9.33344 | 123.31699 | 568 ft | 153 kts | 93° |
| 2026-05-05 12:34 | 9.33286 | 123.32771 | 1229 ft | 151 kts | 91° |
| 2026-05-05 12:35 | 9.33582 | 123.33757 | 1850 ft | 150 kts | 47° |
| 2026-05-05 12:35 | 9.34494 | 123.34346 | 2155 ft | 169 kts | 15° |
| 2026-05-05 12:35 | 9.35726 | 123.34289 | 2396 ft | 192 kts | 340° |
| 2026-05-05 12:35 | 9.36871 | 123.33429 | 2605 ft | 220 kts | 319° |
| 2026-05-05 12:36 | 9.38045 | 123.32299 | 2917 ft | 246 kts | 317° |
| 2026-05-05 12:36 | 9.39309 | 123.31067 | 3563 ft | 257 kts | 318° |
| 2026-05-05 12:36 | 9.40605 | 123.29802 | 4380 ft | 261 kts | 318° |
| 2026-05-05 12:36 | 9.41928 | 123.28515 | 5188 ft | 266 kts | 318° |
| 2026-05-05 12:37 | 9.43277 | 123.27211 | 6015 ft | 270 kts | 318° |
| 2026-05-05 12:37 | 9.44653 | 123.25881 | 6785 ft | 275 kts | 318° |
| 2026-05-05 12:37 | 9.46051 | 123.24536 | 7563 ft | 279 kts | 318° |
| 2026-05-05 12:37 | 9.47459 | 123.23168 | 8340 ft | 283 kts | 314° |
| 2026-05-05 12:38 | 9.48695 | 123.21571 | 8956 ft | 295 kts | 307° |
| 2026-05-05 12:38 | 9.49894 | 123.19858 | 9646 ft | 301 kts | 306° |
| 2026-05-05 12:38 | 9.51114 | 123.18099 | 10203 ft | 312 kts | 306° |
| 2026-05-05 12:38 | 9.52409 | 123.16231 | 10408 ft | 336 kts | 306° |
| 2026-05-05 12:39 | 9.53784 | 123.14253 | 10799 ft | 349 kts | 306° |
| 2026-05-05 12:39 | 9.55193 | 123.12230 | 11424 ft | 354 kts | 306° |
| 2026-05-05 12:39 | 9.56620 | 123.10183 | 12084 ft | 357 kts | 306° |
| 2026-05-05 12:39 | 9.58059 | 123.08116 | 12753 ft | 361 kts | 306° |
| 2026-05-05 12:40 | 9.59512 | 123.06029 | 13419 ft | 364 kts | 306° |
| 2026-05-05 12:40 | 9.60969 | 123.03957 | 14022 ft | 367 kts | 309° |
| 2026-05-05 12:40 | 9.62753 | 123.02101 | 14567 ft | 369 kts | 322° |
| 2026-05-05 12:40 | 9.64911 | 123.00682 | 15114 ft | 372 kts | 335° |
| 2026-05-05 12:41 | 9.67337 | 122.99775 | 15663 ft | 373 kts | 348° |
| 2026-05-05 12:41 | 9.69945 | 122.99391 | 16208 ft | 375 kts | 356° |
| 2026-05-05 12:41 | 9.72555 | 122.99141 | 16745 ft | 378 kts | 356° |
| 2026-05-05 12:41 | 9.75188 | 122.98888 | 17274 ft | 382 kts | 356° |
| 2026-05-05 12:42 | 9.77835 | 122.98584 | 17793 ft | 386 kts | 351° |
| 2026-05-05 12:42 | 9.80437 | 122.97845 | 18287 ft | 391 kts | 340° |
| 2026-05-05 12:42 | 9.82890 | 122.96712 | 18744 ft | 394 kts | 336° |
| 2026-05-05 12:42 | 9.85416 | 122.95513 | 19210 ft | 397 kts | 336° |
| 2026-05-05 12:43 | 9.87901 | 122.94340 | 19663 ft | 401 kts | 336° |
| 2026-05-05 12:43 | 9.90439 | 122.93147 | 20123 ft | 404 kts | 336° |
| 2026-05-05 12:43 | 9.92998 | 122.91947 | 20580 ft | 407 kts | 336° |
| 2026-05-05 12:43 | 9.95580 | 122.90736 | 21022 ft | 410 kts | 336° |
| 2026-05-05 12:44 | 9.98178 | 122.89517 | 21475 ft | 413 kts | 336° |
| 2026-05-05 12:44 | 10.00796 | 122.88285 | 21914 ft | 416 kts | 336° |
| 2026-05-05 12:44 | 10.03430 | 122.87042 | 22358 ft | 419 kts | 336° |
| 2026-05-05 12:44 | 10.06086 | 122.85789 | 22785 ft | 423 kts | 336° |
| 2026-05-05 12:45 | 10.08761 | 122.84527 | 23197 ft | 426 kts | 336° |
| 2026-05-05 12:45 | 10.11464 | 122.83253 | 23581 ft | 429 kts | 336° |
| 2026-05-05 12:45 | 10.14184 | 122.81970 | 23922 ft | 432 kts | 336° |
| 2026-05-05 12:45 | 10.16913 | 122.80688 | 24274 ft | 434 kts | 336° |
| 2026-05-05 12:46 | 10.19660 | 122.79399 | 24614 ft | 436 kts | 336° |
| 2026-05-05 12:46 | 10.22416 | 122.78106 | 24958 ft | 438 kts | 336° |
| 2026-05-05 12:46 | 10.25187 | 122.76799 | 25302 ft | 440 kts | 336° |
| 2026-05-05 12:46 | 10.27969 | 122.75482 | 25640 ft | 441 kts | 336° |
| 2026-05-05 12:47 | 10.30754 | 122.74164 | 25979 ft | 443 kts | 336° |
| 2026-05-05 12:47 | 10.33554 | 122.72842 | 26300 ft | 445 kts | 335° |
| 2026-05-05 12:47 | 10.36365 | 122.71516 | 26622 ft | 446 kts | 335° |
| 2026-05-05 12:47 | 10.39188 | 122.70185 | 26933 ft | 448 kts | 335° |
| 2026-05-05 12:48 | 10.42023 | 122.68846 | 27227 ft | 450 kts | 335° |
| 2026-05-05 12:48 | 10.44866 | 122.67502 | 27518 ft | 452 kts | 335° |
| 2026-05-05 12:48 | 10.47731 | 122.66148 | 27795 ft | 455 kts | 335° |
| 2026-05-05 12:48 | 10.50604 | 122.64791 | 28078 ft | 457 kts | 335° |
| 2026-05-05 12:49 | 10.53488 | 122.63427 | 28369 ft | 458 kts | 335° |
| 2026-05-05 12:49 | 10.56386 | 122.62054 | 28659 ft | 460 kts | 335° |
| 2026-05-05 12:49 | 10.59292 | 122.60678 | 28945 ft | 462 kts | 335° |
| 2026-05-05 12:49 | 10.62215 | 122.59295 | 29233 ft | 463 kts | 335° |
| 2026-05-05 12:50 | 10.65106 | 122.57928 | 29507 ft | 465 kts | 335° |
| 2026-05-05 12:50 | 10.68042 | 122.56542 | 29790 ft | 466 kts | 335° |
| 2026-05-05 12:50 | 10.70987 | 122.55152 | 30052 ft | 467 kts | 335° |
| 2026-05-05 12:50 | 10.73945 | 122.53753 | 30270 ft | 469 kts | 335° |
| 2026-05-05 12:51 | 10.76906 | 122.52353 | 30484 ft | 470 kts | 335° |
| 2026-05-05 12:51 | 10.79883 | 122.50943 | 30694 ft | 471 kts | 335° |
| 2026-05-05 12:51 | 10.82861 | 122.49530 | 30890 ft | 473 kts | 335° |
| 2026-05-05 12:51 | 10.85862 | 122.48136 | 31089 ft | 474 kts | 335° |
| 2026-05-05 12:52 | 10.88894 | 122.46794 | 31283 ft | 475 kts | 336° |
| 2026-05-05 12:52 | 10.91940 | 122.45493 | 31563 ft | 474 kts | 337° |
| 2026-05-05 12:52 | 10.94989 | 122.44215 | 31853 ft | 473 kts | 337° |
| 2026-05-05 12:52 | 10.98002 | 122.42952 | 32123 ft | 473 kts | 337° |
| 2026-05-05 12:53 | 11.01038 | 122.41666 | 32407 ft | 472 kts | 336° |
| 2026-05-05 12:53 | 11.04069 | 122.40366 | 32695 ft | 471 kts | 336° |
| 2026-05-05 12:53 | 11.07086 | 122.39061 | 32980 ft | 470 kts | 336° |
| 2026-05-05 12:53 | 11.10101 | 122.37753 | 33266 ft | 470 kts | 336° |
| 2026-05-05 12:54 | 11.16108 | 122.35140 | 33850 ft | 469 kts | 336° |
| 2026-05-05 12:54 | 11.19104 | 122.33838 | 33929 ft | 464 kts | 336° |
| 2026-05-05 12:55 | 11.24935 | 122.31308 | 33938 ft | 456 kts | 336° |
| 2026-05-05 12:55 | 11.30762 | 122.28785 | 33938 ft | 454 kts | 336° |
| 2026-05-05 12:56 | 11.36595 | 122.26261 | 33933 ft | 455 kts | 336° |
| 2026-05-05 12:56 | 11.42415 | 122.23750 | 33919 ft | 454 kts | 335° |
| 2026-05-05 12:57 | 11.48234 | 122.21230 | 33906 ft | 454 kts | 335° |
| 2026-05-05 12:57 | 11.54046 | 122.18698 | 33904 ft | 454 kts | 335° |
| 2026-05-05 12:58 | 11.59862 | 122.16165 | 33903 ft | 454 kts | 335° |
| 2026-05-05 12:58 | 11.65675 | 122.13643 | 33906 ft | 454 kts | 335° |
| 2026-05-05 12:59 | 11.71487 | 122.11124 | 33910 ft | 453 kts | 335° |
| 2026-05-05 12:59 | 11.77256 | 122.08613 | 33910 ft | 453 kts | 335° |
| 2026-05-05 13:00 | 11.85966 | 122.04822 | 33923 ft | 453 kts | 335° |
| 2026-05-05 13:01 | 11.97574 | 121.99771 | 33921 ft | 453 kts | 335° |
| 2026-05-05 13:01 | 12.03374 | 121.97245 | 33922 ft | 453 kts | 335° |
| 2026-05-05 13:02 | 12.09173 | 121.94718 | 33915 ft | 453 kts | 335° |
| 2026-05-05 13:02 | 12.14976 | 121.92185 | 33919 ft | 453 kts | 335° |
| 2026-05-05 13:03 | 12.20779 | 121.89663 | 33915 ft | 453 kts | 335° |
| 2026-05-05 13:03 | 12.26541 | 121.87151 | 33912 ft | 453 kts | 335° |
| 2026-05-05 13:04 | 12.32341 | 121.84615 | 33918 ft | 453 kts | 335° |
| 2026-05-05 13:04 | 12.38129 | 121.82072 | 33916 ft | 453 kts | 335° |
| 2026-05-05 13:05 | 12.43927 | 121.79533 | 33919 ft | 453 kts | 335° |
| 2026-05-05 13:05 | 12.48752 | 121.77426 | 33929 ft | 453 kts | 335° |
| 2026-05-05 13:06 | 12.55493 | 121.74474 | 33935 ft | 453 kts | 335° |
| 2026-05-05 13:06 | 12.60342 | 121.72346 | 33935 ft | 452 kts | 335° |
| 2026-05-05 13:07 | 12.66124 | 121.69814 | 33935 ft | 452 kts | 335° |
| 2026-05-05 13:07 | 12.71902 | 121.67275 | 33935 ft | 453 kts | 335° |
| 2026-05-05 13:08 | 12.74812 | 121.65997 | 33164 ft | 456 kts | 335° |
| 2026-05-05 13:08 | 12.77742 | 121.64714 | 31751 ft | 460 kts | 336° |
| 2026-05-05 13:08 | 12.80682 | 121.63425 | 30614 ft | 458 kts | 336° |
| 2026-05-05 13:08 | 12.83602 | 121.62141 | 29527 ft | 454 kts | 336° |
| 2026-05-05 13:09 | 12.86482 | 121.60876 | 28667 ft | 444 kts | 336° |
| 2026-05-05 13:09 | 12.89261 | 121.59655 | 28190 ft | 426 kts | 336° |
| 2026-05-05 13:09 | 12.91909 | 121.58494 | 27696 ft | 412 kts | 336° |
| 2026-05-05 13:09 | 12.94530 | 121.57344 | 27211 ft | 398 kts | 336° |
| 2026-05-05 13:10 | 12.97038 | 121.56240 | 26750 ft | 385 kts | 336° |
| 2026-05-05 13:10 | 12.99480 | 121.55163 | 26321 ft | 383 kts | 336° |
| 2026-05-05 13:10 | 13.01932 | 121.54083 | 25870 ft | 383 kts | 336° |
| 2026-05-05 13:10 | 13.04375 | 121.53008 | 25427 ft | 382 kts | 336° |
| 2026-05-05 13:11 | 13.06811 | 121.51935 | 24979 ft | 381 kts | 336° |
| 2026-05-05 13:11 | 13.09245 | 121.50864 | 24524 ft | 380 kts | 336° |
| 2026-05-05 13:11 | 13.11677 | 121.49794 | 24068 ft | 380 kts | 336° |
| 2026-05-05 13:11 | 13.14105 | 121.48725 | 23588 ft | 380 kts | 336° |
| 2026-05-05 13:12 | 13.16538 | 121.47652 | 23058 ft | 380 kts | 336° |
| 2026-05-05 13:12 | 13.18929 | 121.46597 | 22582 ft | 379 kts | 337° |
| 2026-05-05 13:12 | 13.21379 | 121.45517 | 22096 ft | 377 kts | 337° |
| 2026-05-05 13:12 | 13.23785 | 121.44457 | 21623 ft | 376 kts | 337° |
| 2026-05-05 13:13 | 13.26188 | 121.43400 | 21142 ft | 375 kts | 337° |
| 2026-05-05 13:13 | 13.28591 | 121.42342 | 20663 ft | 375 kts | 337° |
| 2026-05-05 13:13 | 13.30986 | 121.41286 | 20180 ft | 375 kts | 337° |
| 2026-05-05 13:13 | 13.33380 | 121.40228 | 19704 ft | 375 kts | 337° |
| 2026-05-05 13:14 | 13.35773 | 121.39170 | 19224 ft | 375 kts | 338° |
| 2026-05-05 13:14 | 13.38168 | 121.38112 | 18753 ft | 375 kts | 338° |
| 2026-05-05 13:14 | 13.40533 | 121.37070 | 18284 ft | 375 kts | 338° |
| 2026-05-05 13:14 | 13.42930 | 121.36014 | 17766 ft | 374 kts | 338° |
| 2026-05-05 13:15 | 13.45318 | 121.34960 | 17292 ft | 373 kts | 338° |
| 2026-05-05 13:15 | 13.47692 | 121.33912 | 16830 ft | 371 kts | 338° |
| 2026-05-05 13:15 | 13.50055 | 121.32868 | 16372 ft | 369 kts | 338° |
| 2026-05-05 13:15 | 13.52405 | 121.31824 | 16011 ft | 365 kts | 336° |
| 2026-05-05 13:16 | 13.54542 | 121.30497 | 15885 ft | 355 kts | 322° |
| 2026-05-05 13:16 | 13.56278 | 121.28742 | 15768 ft | 345 kts | 312° |
| 2026-05-05 13:16 | 13.57834 | 121.26917 | 15330 ft | 335 kts | 312° |
| 2026-05-05 13:16 | 13.59364 | 121.25131 | 15026 ft | 332 kts | 312° |
| 2026-05-05 13:17 | 13.60886 | 121.23356 | 14742 ft | 330 kts | 312° |
| 2026-05-05 13:17 | 13.62399 | 121.21591 | 14465 ft | 328 kts | 312° |
| 2026-05-05 13:17 | 13.63903 | 121.19837 | 14181 ft | 326 kts | 312° |
| 2026-05-05 13:17 | 13.65404 | 121.18087 | 13912 ft | 327 kts | 312° |
| 2026-05-05 13:18 | 13.66900 | 121.16341 | 13609 ft | 324 kts | 313° |
| 2026-05-05 13:18 | 13.68388 | 121.14602 | 13320 ft | 322 kts | 312° |
| 2026-05-05 13:18 | 13.69864 | 121.12876 | 13040 ft | 321 kts | 312° |
| 2026-05-05 13:18 | 13.71331 | 121.11158 | 12768 ft | 319 kts | 312° |
| 2026-05-05 13:19 | 13.72793 | 121.09447 | 12496 ft | 318 kts | 312° |
| 2026-05-05 13:19 | 13.74250 | 121.07742 | 12224 ft | 316 kts | 312° |
| 2026-05-05 13:19 | 13.75700 | 121.06044 | 11956 ft | 315 kts | 312° |
| 2026-05-05 13:19 | 13.77141 | 121.04358 | 11688 ft | 313 kts | 312° |
| 2026-05-05 13:20 | 13.78576 | 121.02677 | 11421 ft | 312 kts | 312° |
| 2026-05-05 13:20 | 13.80004 | 121.01004 | 11149 ft | 310 kts | 312° |
| 2026-05-05 13:20 | 13.81567 | 120.99494 | 10930 ft | 307 kts | 326° |
| 2026-05-05 13:20 | 13.83433 | 120.98457 | 10681 ft | 304 kts | 341° |
| 2026-05-05 13:21 | 13.85440 | 120.97965 | 10436 ft | 300 kts | 355° |
| 2026-05-05 13:21 | 13.87518 | 120.97751 | 10168 ft | 299 kts | 356° |
| 2026-05-05 13:21 | 13.89589 | 120.97537 | 9911 ft | 298 kts | 356° |
| 2026-05-05 13:21 | 13.91647 | 120.97320 | 9640 ft | 297 kts | 355° |
| 2026-05-05 13:22 | 13.93700 | 120.97102 | 9378 ft | 295 kts | 356° |
| 2026-05-05 13:22 | 13.95743 | 120.96886 | 9124 ft | 294 kts | 355° |
| 2026-05-05 13:22 | 13.97778 | 120.96671 | 8868 ft | 293 kts | 356° |
| 2026-05-05 13:22 | 13.99809 | 120.96457 | 8620 ft | 292 kts | 356° |
| 2026-05-05 13:23 | 14.01826 | 120.96243 | 8371 ft | 291 kts | 356° |
| 2026-05-05 13:23 | 14.03838 | 120.96029 | 8117 ft | 290 kts | 356° |
| 2026-05-05 13:23 | 14.05839 | 120.95818 | 7872 ft | 288 kts | 356° |
| 2026-05-05 13:23 | 14.07829 | 120.95607 | 7629 ft | 287 kts | 356° |
| 2026-05-05 13:24 | 14.09812 | 120.95397 | 7408 ft | 282 kts | 356° |
| 2026-05-05 13:24 | 14.11723 | 120.95195 | 7276 ft | 271 kts | 356° |
| 2026-05-05 13:24 | 14.13567 | 120.94998 | 6960 ft | 262 kts | 356° |
| 2026-05-05 13:24 | 14.15376 | 120.94805 | 6706 ft | 261 kts | 356° |
| 2026-05-05 13:25 | 14.17167 | 120.94483 | 6469 ft | 262 kts | 343° |
| 2026-05-05 13:25 | 14.18816 | 120.93688 | 6239 ft | 263 kts | 331° |
| 2026-05-05 13:25 | 14.20398 | 120.92745 | 6008 ft | 263 kts | 332° |
| 2026-05-05 13:25 | 14.21982 | 120.91809 | 5780 ft | 262 kts | 332° |
| 2026-05-05 13:26 | 14.23570 | 120.90872 | 5552 ft | 262 kts | 332° |
| 2026-05-05 13:26 | 14.25125 | 120.89953 | 5324 ft | 253 kts | 332° |
| 2026-05-05 13:26 | 14.26630 | 120.89072 | 5168 ft | 243 kts | 333° |
| 2026-05-05 13:26 | 14.28045 | 120.88248 | 5117 ft | 230 kts | 333° |
| 2026-05-05 13:27 | 14.29407 | 120.87458 | 5065 ft | 219 kts | 333° |
| 2026-05-05 13:27 | 14.30720 | 120.86698 | 5017 ft | 215 kts | 333° |
| 2026-05-05 13:27 | 14.32025 | 120.85945 | 4971 ft | 215 kts | 333° |
| 2026-05-05 13:27 | 14.33328 | 120.85190 | 4924 ft | 215 kts | 333° |
| 2026-05-05 13:28 | 14.34624 | 120.84436 | 4832 ft | 213 kts | 333° |
| 2026-05-05 13:28 | 14.35919 | 120.83683 | 4705 ft | 214 kts | 335° |
| 2026-05-05 13:28 | 14.37306 | 120.83193 | 4464 ft | 209 kts | 355° |
| 2026-05-05 13:28 | 14.38740 | 120.83212 | 4203 ft | 206 kts | 15° |
| 2026-05-05 13:29 | 14.40084 | 120.83716 | 3780 ft | 210 kts | 34° |
| 2026-05-05 13:29 | 14.41202 | 120.84697 | 3338 ft | 211 kts | 54° |
| 2026-05-05 13:29 | 14.41969 | 120.85961 | 2989 ft | 206 kts | 63° |
| 2026-05-05 13:29 | 14.42673 | 120.87227 | 2726 ft | 199 kts | 62° |
| 2026-05-05 13:30 | 14.43336 | 120.88415 | 2485 ft | 183 kts | 63° |
| 2026-05-05 13:30 | 14.43947 | 120.89513 | 2255 ft | 170 kts | 62° |
| 2026-05-05 13:30 | 14.44505 | 120.90515 | 2060 ft | 151 kts | 63° |
| 2026-05-05 13:30 | 14.45006 | 120.91414 | 1869 ft | 140 kts | 62° |
| 2026-05-05 13:31 | 14.45480 | 120.92268 | 1689 ft | 136 kts | 63° |
| 2026-05-05 13:31 | 14.45943 | 120.93101 | 1514 ft | 135 kts | 63° |
| 2026-05-05 13:31 | 14.46412 | 120.93945 | 1344 ft | 134 kts | 63° |
| 2026-05-05 13:31 | 14.46869 | 120.94768 | 1184 ft | 133 kts | 64° |
| 2026-05-05 13:32 | 14.47332 | 120.95600 | 1013 ft | 135 kts | 63° |
| 2026-05-05 13:32 | 14.47796 | 120.96437 | 870 ft | 134 kts | 63° |
| 2026-05-05 13:32 | 14.47952 | 120.96720 | 810 ft | 136 kts | 64° |
| 2026-05-05 13:32 | 14.48358 | 120.97390 | 591 ft | 137 kts | 64° |
| 2026-05-05 13:33 | 14.48802 | 120.98241 | 486 ft | 135 kts | 64° |
| 2026-05-05 13:33 | 14.49277 | 120.99082 | 323 ft | 136 kts | 64° |
| 2026-05-05 13:33 | 14.49743 | 120.99932 | 165 ft | 136 kts | 64° |
| 2026-05-05 13:33 | 14.50197 | 121.00757 | 69 ft | 120 kts | 60° |
| 2026-05-05 13:34 | 14.50528 | 121.01342 | 65 ft | 70 kts | 61° |
| 2026-05-05 13:34 | 14.50721 | 121.01676 | 65 ft | 41 kts | 50° |
| 2026-05-05 13:34 | 14.50870 | 121.01786 | 68 ft | 18 kts | 6° |
| 2026-05-05 13:34 | 14.50896 | 121.01723 | 61 ft | 0 kts | 238° |
| 2026-05-05 13:35 | 14.50893 | 121.01718 | 63 ft | 6 kts | 239° |
| 2026-05-05 13:35 | 14.50902 | 121.01656 | 64 ft | 10 kts | 316° |
| 2026-05-05 13:35 | 14.50949 | 121.01610 | 65 ft | 9 kts | 314° |
| 2026-05-05 13:36 | 14.50999 | 121.01558 | 66 ft | 11 kts | 314° |
| 2026-05-05 13:36 | 14.51051 | 121.01503 | 68 ft | 10 kts | 314° |
| 2026-05-05 13:36 | 14.51066 | 121.01449 | 65 ft | 8 kts | 229° |
| 2026-05-05 13:36 | 14.51029 | 121.01410 | 63 ft | 7 kts | 225° |
| 2026-05-05 13:37 | 14.51024 | 121.01404 | 65 ft | 0 kts | 226° |